Time;durP1;ratioP1;P1;durP2;ratioP2;P2;SDS_P1;SDS_P2;PMS_P1;PMS_P2;Temp;Humidity;BMP_temperature;BMP_pressure;BME280_temperature;BME280_humidity;BME280_pressure;Samples;Min_cycle;Max_cycle;Signal;HPM_P1;HPM_P2
2021/12/25 00:01:41;;;;;;;8.15;5.25;;;;;;;;;;5054196;28;20083;-59
2021/12/25 00:04:07;;;;;;;11.98;6.03;;;;;;;;;;5057649;28;20036;-54
2021/12/25 00:06:34;;;;;;;8.55;4.90;;;;;;;;;;5057895;28;20488;-50
2021/12/25 00:09:00;;;;;;;20.73;12.98;;;;;;;;;;5054528;28;20044;-53
2021/12/25 00:11:25;;;;;;;23.40;14.85;;;;;;;;;;5060374;28;20036;-56
2021/12/25 00:13:51;;;;;;;2.15;0.98;;;;;;;;;;5052962;28;20080;-57
2021/12/25 00:16:17;;;;;;;0.80;0.35;;;;;;;;;;5057962;28;20490;-58
2021/12/25 00:18:42;;;;;;;1.05;0.50;;;;;;;;;;5055797;28;20040;-55
2021/12/25 00:21:09;;;;;;;1.23;0.70;;;;;;;;;;5055298;28;21609;-53
2021/12/25 00:23:36;;;;;;;3.35;1.60;;;;;;;;;;5059073;28;20032;-51
2021/12/25 00:26:07;;;;;;;13.13;6.47;;;;;;;;;;5052735;28;20045;-54
2021/12/25 00:31:21;;;;;;;58.70;25.00;;;;;;;;;;5055064;28;20040;-54
2021/12/25 00:36:24;;;;;;;15.95;7.45;;;;;;;;;;5056979;28;20033;-53
2021/12/25 00:38:51;;;;;;;1.45;0.40;;;;;;;;;;5056717;28;20163;-52
2021/12/25 00:41:19;;;;;;;7.72;3.85;;;;;;;;;;5058814;28;20053;-52
2021/12/25 00:43:46;;;;;;;3.63;1.17;;;;;;;;;;5053186;28;20040;-56
2021/12/25 00:46:12;;;;;;;4.03;0.77;;;;;;;;;;5056554;28;20488;-54
2021/12/25 00:48:37;;;;;;;1.23;0.32;;;;;;;;;;5054692;28;20047;-56
2021/12/25 00:51:04;;;;;;;1.40;1.27;;;;;;;;;;5053190;28;20110;-57
2021/12/25 00:53:30;;;;;;;3.65;0.98;;;;;;;;;;5058976;28;20674;-57
2021/12/25 00:55:56;;;;;;;1.50;0.70;;;;;;;;;;5052275;28;20040;-56
2021/12/25 00:58:22;;;;;;;1.17;0.43;;;;;;;;;;5056426;28;20540;-52
2021/12/25 01:00:47;;;;;;;1.52;0.40;;;;;;;;;;5058383;28;20037;-56
2021/12/25 01:03:13;;;;;;;2.00;0.40;;;;;;;;;;5053946;28;20128;-51
2021/12/25 01:05:39;;;;;;;3.45;0.40;;;;;;;;;;5058155;28;20044;-55
2021/12/25 01:08:05;;;;;;;0.47;0.30;;;;;;;;;;5053438;28;20041;-53
2021/12/25 01:10:33;;;;;;;0.95;0.40;;;;;;;;;;5056413;28;20043;-55
2021/12/25 01:13:06;;;;;;;1.30;0.50;;;;;;;;;;5056735;28;20051;-54
2021/12/25 01:15:48;;;;;;;0.65;0.40;;;;;;;;;;5053374;28;20047;-53
2021/12/25 01:18:52;;;;;;;3.92;0.60;;;;;;;;;;5058977;28;20090;-54
2021/12/25 01:24:15;;;;;;;2.85;0.80;;;;;;;;;;5058265;28;20051;-54
2021/12/25 01:27:05;;;;;;;1.67;0.70;;;;;;;;;;5050688;28;20497;-53
2021/12/25 01:30:17;;;;;;;0.95;0.60;;;;;;;;;;5055051;28;20036;-56
2021/12/25 01:33:20;;;;;;;1.95;0.93;;;;;;;;;;5041604;28;20036;-54
2021/12/25 01:35:39;;;;;;;1.70;0.73;;;;;;;;;;5051914;28;20048;-51
2021/12/25 01:41:02;;;;;;;2.78;0.55;;;;;;;;;;5057477;28;20048;-56
2021/12/25 01:48:57;;;;;;;0.45;0.45;;;;;;;;;;5055626;28;20565;-54
2021/12/25 01:51:23;;;;;;;1.15;0.52;;;;;;;;;;5055352;28;20032;-57
2021/12/25 01:53:49;;;;;;;1.38;0.70;;;;;;;;;;5060593;28;20135;-55
2021/12/25 01:56:15;;;;;;;1.55;0.50;;;;;;;;;;5057998;28;20136;-56
2021/12/25 01:58:41;;;;;;;3.25;0.60;;;;;;;;;;5056615;28;20533;-51
2021/12/25 02:01:08;;;;;;;2.03;0.70;;;;;;;;;;5059870;28;20069;-56
2021/12/25 02:03:36;;;;;;;1.88;0.60;;;;;;;;;;5057571;28;20408;-55
2021/12/25 02:06:05;;;;;;;1.95;0.57;;;;;;;;;;5060877;28;20141;-52
2021/12/25 02:08:31;;;;;;;1.42;1.33;;;;;;;;;;5053889;28;20048;-54
2021/12/25 02:10:58;;;;;;;1.27;0.70;;;;;;;;;;5057253;28;20039;-55
2021/12/25 02:13:24;;;;;;;1.65;0.60;;;;;;;;;;5060362;28;20032;-52
2021/12/25 02:15:53;;;;;;;0.45;0.40;;;;;;;;;;5056123;28;20037;-49
2021/12/25 02:18:31;;;;;;;3.50;0.60;;;;;;;;;;5060788;28;20051;-52
2021/12/25 02:21:11;;;;;;;1.27;0.57;;;;;;;;;;5054455;28;20033;-56
2021/12/25 02:23:37;;;;;;;3.67;0.85;;;;;;;;;;5058758;28;20068;-53
2021/12/25 02:26:04;;;;;;;2.15;0.90;;;;;;;;;;5056897;28;20083;-56
2021/12/25 02:28:30;;;;;;;2.47;0.88;;;;;;;;;;5057880;28;20372;-55
2021/12/25 02:31:00;;;;;;;1.10;0.98;;;;;;;;;;5059030;28;20131;-53
2021/12/25 02:33:26;;;;;;;1.23;0.77;;;;;;;;;;5057084;28;20666;-58
2021/12/25 02:35:52;;;;;;;1.98;1.20;;;;;;;;;;5061379;28;20091;-53
2021/12/25 02:38:18;;;;;;;4.30;0.90;;;;;;;;;;5056397;28;20041;-57
2021/12/25 02:40:44;;;;;;;1.80;0.90;;;;;;;;;;5056913;28;20128;-51
2021/12/25 02:43:09;;;;;;;1.80;0.82;;;;;;;;;;5058960;28;20049;-54
2021/12/25 02:45:35;;;;;;;2.88;0.90;;;;;;;;;;5056405;28;20125;-52
2021/12/25 02:48:07;;;;;;;1.02;0.80;;;;;;;;;;5056730;28;20138;-56
2021/12/25 02:50:33;;;;;;;1.85;0.70;;;;;;;;;;5054439;28;20361;-56
2021/12/25 02:53:01;;;;;;;5.45;0.80;;;;;;;;;;5056574;28;20041;-55
2021/12/25 02:55:27;;;;;;;1.70;0.63;;;;;;;;;;5062399;28;20047;-53
2021/12/25 02:57:54;;;;;;;2.10;0.85;;;;;;;;;;5054787;28;20041;-57
2021/12/25 03:00:23;;;;;;;2.20;0.55;;;;;;;;;;5060894;28;20041;-53
2021/12/25 03:02:48;;;;;;;1.20;0.55;;;;;;;;;;5057769;28;20040;-51
2021/12/25 03:05:15;;;;;;;2.17;0.47;;;;;;;;;;5057879;28;20041;-54
2021/12/25 03:07:41;;;;;;;1.73;0.60;;;;;;;;;;5055494;28;20516;-54
2021/12/25 03:10:08;;;;;;;1.83;0.50;;;;;;;;;;5054592;28;20056;-54
2021/12/25 03:12:46;;;;;;;1.88;0.60;;;;;;;;;;5059336;28;20043;-54
2021/12/25 03:15:16;;;;;;;2.63;0.68;;;;;;;;;;5055576;28;20709;-54
2021/12/25 03:17:42;;;;;;;0.85;0.50;;;;;;;;;;5057302;28;20040;-53
2021/12/25 03:20:10;;;;;;;1.75;0.43;;;;;;;;;;5058462;28;20044;-54
2021/12/25 03:22:37;;;;;;;0.63;0.60;;;;;;;;;;5056177;28;20040;-54
2021/12/25 03:25:08;;;;;;;0.90;0.55;;;;;;;;;;5059558;28;20028;-51
2021/12/25 03:27:36;;;;;;;1.85;0.40;;;;;;;;;;5052154;28;20036;-57
2021/12/25 03:30:03;;;;;;;1.02;0.93;;;;;;;;;;5056916;28;20059;-56
2021/12/25 03:32:29;;;;;;;0.65;0.65;;;;;;;;;;5057483;28;20032;-54
2021/12/25 03:34:55;;;;;;;0.70;0.50;;;;;;;;;;5053838;28;20037;-50
2021/12/25 03:37:20;;;;;;;1.17;0.73;;;;;;;;;;5059645;28;20828;-57
2021/12/25 03:39:46;;;;;;;1.73;0.50;;;;;;;;;;5061504;28;20097;-51
2021/12/25 03:42:12;;;;;;;1.73;0.55;;;;;;;;;;5057448;28;20082;-56
2021/12/25 03:44:37;;;;;;;1.27;0.52;;;;;;;;;;5057199;28;20044;-51
2021/12/25 03:47:13;;;;;;;0.95;0.60;;;;;;;;;;5054339;28;20138;-58
2021/12/25 03:58:01;;;;;;;1.13;0.50;;;;;;;;;;5052763;28;20044;-56
2021/12/25 04:00:30;;;;;;;2.92;0.63;;;;;;;;;;5058267;28;20783;-53
2021/12/25 04:03:01;;;;;;;0.55;0.38;;;;;;;;;;5054171;28;20033;-49
2021/12/25 04:05:30;;;;;;;1.05;0.65;;;;;;;;;;5056928;28;20094;-54
2021/12/25 04:10:22;;;;;;;1.58;0.35;;;;;;;;;;5055359;28;20443;-55
2021/12/25 04:12:48;;;;;;;1.38;1.00;;;;;;;;;;5058145;28;20037;-49
2021/12/25 04:15:14;;;;;;;1.40;0.70;;;;;;;;;;5055057;28;20090;-54
2021/12/25 04:17:39;;;;;;;1.60;0.63;;;;;;;;;;5054940;28;20040;-56
2021/12/25 04:20:06;;;;;;;1.75;0.60;;;;;;;;;;5056767;28;20041;-51
2021/12/25 04:22:42;;;;;;;1.98;0.63;;;;;;;;;;5054794;28;20820;-53
2021/12/25 04:25:08;;;;;;;2.70;1.38;;;;;;;;;;5057520;28;20195;-53
2021/12/25 04:27:34;;;;;;;3.35;0.75;;;;;;;;;;5057241;28;20473;-51
2021/12/25 04:30:16;;;;;;;3.75;0.60;;;;;;;;;;5054383;28;20048;-54
2021/12/25 04:49:04;;;;;;;4.15;1.00;;;;;;;;;;5056434;28;20047;-55
2021/12/25 05:05:01;;;;;;;1.88;0.85;;;;;;;;;;5051993;28;20820;-53
2021/12/25 05:07:27;;;;;;;0.88;0.70;;;;;;;;;;5056684;28;20037;-49
2021/12/25 05:09:53;;;;;;;1.48;0.98;;;;;;;;;;5053800;28;20344;-56
2021/12/25 05:12:19;;;;;;;2.28;0.98;;;;;;;;;;5055261;28;20037;-53
2021/12/25 05:14:45;;;;;;;3.05;1.27;;;;;;;;;;5057065;28;20070;-53
2021/12/25 05:17:12;;;;;;;1.90;0.80;;;;;;;;;;5052539;28;20044;-54
2021/12/25 05:19:39;;;;;;;1.08;0.98;;;;;;;;;;5056244;28;20044;-56
2021/12/25 05:22:04;;;;;;;4.78;1.15;;;;;;;;;;5052978;28;20036;-56
2021/12/25 05:24:30;;;;;;;2.40;0.93;;;;;;;;;;5055532;28;20128;-51
2021/12/25 05:26:57;;;;;;;2.80;1.13;;;;;;;;;;5055162;28;20060;-54
2021/12/25 05:29:25;;;;;;;1.52;1.20;;;;;;;;;;5053195;28;20060;-51
2021/12/25 05:31:52;;;;;;;1.90;0.93;;;;;;;;;;5056016;28;20060;-53
2021/12/25 05:34:17;;;;;;;1.33;0.98;;;;;;;;;;5053567;28;20114;-52
2021/12/25 05:36:43;;;;;;;3.15;1.13;;;;;;;;;;5051923;28;20563;-50
2021/12/25 05:39:12;;;;;;;2.58;1.40;;;;;;;;;;5055371;28;20063;-54
2021/12/25 05:41:38;;;;;;;2.88;1.25;;;;;;;;;;5052545;28;20051;-52
2021/12/25 05:44:04;;;;;;;4.57;1.73;;;;;;;;;;5055778;28;20516;-51
2021/12/25 05:46:29;;;;;;;1.98;0.95;;;;;;;;;;5057441;28;20051;-52
2021/12/25 05:48:55;;;;;;;3.75;1.30;;;;;;;;;;5053460;28;20065;-54
2021/12/25 05:51:21;;;;;;;3.08;1.63;;;;;;;;;;5056294;28;20135;-50
2021/12/25 05:53:47;;;;;;;3.83;1.20;;;;;;;;;;5052260;28;20029;-55
2021/12/25 05:56:13;;;;;;;3.60;1.20;;;;;;;;;;5056866;28;20041;-55
2021/12/25 05:58:39;;;;;;;2.35;1.00;;;;;;;;;;5052045;28;20152;-50
2021/12/25 06:01:05;;;;;;;5.50;1.30;;;;;;;;;;5053640;28;20113;-54
2021/12/25 06:03:31;;;;;;;1.92;0.70;;;;;;;;;;5056433;28;20040;-54
2021/12/25 06:05:57;;;;;;;1.27;0.90;;;;;;;;;;5052557;28;20634;-52
2021/12/25 06:08:24;;;;;;;1.75;1.00;;;;;;;;;;5054207;28;20048;-55
2021/12/25 06:10:50;;;;;;;3.95;1.45;;;;;;;;;;5051742;28;20144;-56
2021/12/25 06:13:19;;;;;;;3.60;1.00;;;;;;;;;;5056976;28;20561;-51
2021/12/25 06:15:45;;;;;;;3.42;0.98;;;;;;;;;;5054827;28;20136;-52
2021/12/25 06:18:12;;;;;;;4.32;1.20;;;;;;;;;;5051999;28;20136;-55
2021/12/25 06:20:38;;;;;;;2.50;1.02;;;;;;;;;;5056609;28;20489;-52
2021/12/25 06:23:04;;;;;;;4.50;1.02;;;;;;;;;;5053149;28;20040;-50
2021/12/25 06:25:29;;;;;;;2.28;1.27;;;;;;;;;;5055819;28;20174;-54
2021/12/25 06:27:55;;;;;;;1.83;1.13;;;;;;;;;;5055130;28;20449;-51
2021/12/25 06:30:21;;;;;;;3.08;2.05;;;;;;;;;;5053063;28;20072;-47
2021/12/25 06:32:46;;;;;;;2.35;1.30;;;;;;;;;;5056309;28;20049;-50
2021/12/25 06:35:12;;;;;;;4.50;1.25;;;;;;;;;;5052490;28;20619;-51
2021/12/25 06:37:41;;;;;;;1.50;0.93;;;;;;;;;;5056355;28;20109;-56
2021/12/25 06:40:10;;;;;;;2.15;1.17;;;;;;;;;;5058648;28;20028;-53
2021/12/25 06:42:36;;;;;;;2.50;1.10;;;;;;;;;;5056620;28;20086;-48
2021/12/25 06:45:02;;;;;;;3.38;1.00;;;;;;;;;;5059674;28;20054;-53
2021/12/25 06:47:27;;;;;;;1.55;1.02;;;;;;;;;;5056687;28;20056;-56
2021/12/25 06:49:53;;;;;;;4.47;1.20;;;;;;;;;;5057061;28;20037;-51
2021/12/25 06:52:19;;;;;;;1.95;0.88;;;;;;;;;;5058914;28;20095;-51
2021/12/25 06:54:45;;;;;;;3.92;1.13;;;;;;;;;;5055160;28;20136;-54
2021/12/25 06:57:10;;;;;;;2.92;1.20;;;;;;;;;;5059408;28;20060;-52
2021/12/25 06:59:36;;;;;;;2.20;1.20;;;;;;;;;;5056654;28;20484;-57
2021/12/25 07:02:02;;;;;;;2.38;1.50;;;;;;;;;;5059414;28;20041;-50
2021/12/25 07:04:27;;;;;;;2.22;1.20;;;;;;;;;;5060028;28;20076;-51
2021/12/25 07:06:53;;;;;;;1.70;1.20;;;;;;;;;;5054887;28;20045;-52
2021/12/25 07:09:19;;;;;;;3.58;0.90;;;;;;;;;;5059271;28;20044;-56
2021/12/25 07:11:45;;;;;;;1.85;1.23;;;;;;;;;;5054145;28;20101;-51
2021/12/25 07:14:12;;;;;;;2.20;1.60;;;;;;;;;;5056940;28;20082;-45
2021/12/25 07:16:38;;;;;;;2.50;1.65;;;;;;;;;;5057456;28;20033;-47
2021/12/25 07:19:03;;;;;;;4.25;2.10;;;;;;;;;;5053854;28;20041;-49
2021/12/25 07:21:30;;;;;;;10.23;4.93;;;;;;;;;;5059998;28;20101;-48
2021/12/25 07:23:55;;;;;;;15.57;7.07;;;;;;;;;;5053706;28;20048;-47
2021/12/25 07:26:21;;;;;;;16.20;5.82;;;;;;;;;;5057357;28;20566;-45
2021/12/25 07:28:47;;;;;;;8.73;3.78;;;;;;;;;;5056839;28;20207;-43
2021/12/25 07:31:13;;;;;;;5.03;2.35;;;;;;;;;;5054647;28;20039;-49
2021/12/25 07:33:42;;;;;;;3.97;1.85;;;;;;;;;;5058660;28;20112;-44
2021/12/25 07:36:09;;;;;;;4.15;1.85;;;;;;;;;;5053531;28;20044;-44
2021/12/25 07:38:35;;;;;;;5.78;1.77;;;;;;;;;;5057023;28;20827;-46
2021/12/25 07:41:01;;;;;;;8.93;3.55;;;;;;;;;;5055569;28;20075;-50
2021/12/25 07:43:27;;;;;;;11.25;5.97;;;;;;;;;;5054717;28;20040;-49
2021/12/25 07:45:53;;;;;;;14.45;7.63;;;;;;;;;;5054875;28;20126;-48
2021/12/25 07:48:20;;;;;;;9.55;5.10;;;;;;;;;;5053664;28;20170;-48
2021/12/25 07:50:47;;;;;;;10.35;4.75;;;;;;;;;;5056371;28;20040;-44
2021/12/25 07:53:12;;;;;;;6.97;4.30;;;;;;;;;;5055092;28;20041;-46
2021/12/25 07:55:39;;;;;;;8.50;4.60;;;;;;;;;;5055100;28;20043;-50
2021/12/25 07:58:06;;;;;;;8.45;5.05;;;;;;;;;;5056628;28;20033;-46
2021/12/25 08:00:31;;;;;;;8.18;6.20;;;;;;;;;;5052232;28;20037;-45
2021/12/25 08:02:57;;;;;;;7.18;4.95;;;;;;;;;;5056530;28;20118;-48
2021/12/25 08:05:23;;;;;;;7.70;5.10;;;;;;;;;;5055419;28;20045;-47
2021/12/25 08:07:49;;;;;;;8.60;4.75;;;;;;;;;;5057970;28;20705;-44
2021/12/25 08:10:17;;;;;;;6.30;4.22;;;;;;;;;;5055737;28;20848;-45
2021/12/25 08:12:46;;;;;;;12.60;5.60;;;;;;;;;;5053134;28;20033;-45
2021/12/25 08:15:14;;;;;;;18.17;7.30;;;;;;;;;;5056661;28;20032;-47
2021/12/25 08:17:41;;;;;;;23.55;10.82;;;;;;;;;;5055736;28;20048;-47
2021/12/25 08:20:07;;;;;;;34.70;11.13;;;;;;;;;;5050094;28;20064;-46
2021/12/25 08:22:34;;;;;;;22.23;10.43;;;;;;;;;;5058759;28;20037;-43
2021/12/25 08:24:59;;;;;;;16.48;8.25;;;;;;;;;;5052797;28;20479;-47
2021/12/25 08:27:25;;;;;;;13.35;8.63;;;;;;;;;;5057091;28;20053;-43
2021/12/25 08:29:51;;;;;;;18.85;10.98;;;;;;;;;;5054734;28;20048;-47
2021/12/25 08:32:17;;;;;;;15.07;9.55;;;;;;;;;;5055175;28;20053;-46
2021/12/25 08:34:43;;;;;;;15.07;9.35;;;;;;;;;;5057570;28;20439;-47
2021/12/25 08:37:09;;;;;;;28.98;15.07;;;;;;;;;;5052587;28;20298;-47
2021/12/25 08:39:35;;;;;;;37.35;19.23;;;;;;;;;;5056768;28;20028;-43
2021/12/25 08:42:03;;;;;;;23.52;12.18;;;;;;;;;;5054184;28;20056;-49
2021/12/25 08:44:40;;;;;;;14.70;8.13;;;;;;;;;;5055339;28;20115;-44
2021/12/25 08:47:11;;;;;;;9.80;6.28;;;;;;;;;;5051776;28;20049;-49
2021/12/25 08:49:39;;;;;;;8.48;4.60;;;;;;;;;;5051538;28;20039;-44
2021/12/25 08:52:07;;;;;;;4.82;3.55;;;;;;;;;;5056441;28;20492;-44
2021/12/25 08:54:34;;;;;;;8.45;4.20;;;;;;;;;;5051771;28;20388;-46
2021/12/25 08:57:00;;;;;;;9.25;4.22;;;;;;;;;;5056767;28;20033;-47
2021/12/25 08:59:27;;;;;;;7.70;4.68;;;;;;;;;;5056863;28;21480;-50
2021/12/25 09:01:52;;;;;;;6.43;4.72;;;;;;;;;;5051870;28;20037;-46
2021/12/25 09:04:18;;;;;;;4.18;2.78;;;;;;;;;;5057057;28;20615;-45
2021/12/25 09:06:44;;;;;;;6.32;3.67;;;;;;;;;;5052239;28;20468;-50
2021/12/25 09:09:10;;;;;;;6.43;4.65;;;;;;;;;;5052853;28;20143;-51
2021/12/25 09:11:37;;;;;;;6.15;4.60;;;;;;;;;;5056286;28;20056;-48
2021/12/25 09:14:03;;;;;;;8.32;5.25;;;;;;;;;;5052645;28;20120;-46
2021/12/25 09:16:29;;;;;;;4.82;3.05;;;;;;;;;;5058280;28;20450;-47
2021/12/25 09:18:55;;;;;;;5.40;3.58;;;;;;;;;;5051358;28;20037;-48
2021/12/25 09:21:20;;;;;;;9.85;6.60;;;;;;;;;;5055204;28;20098;-51
2021/12/25 09:23:46;;;;;;;10.35;7.10;;;;;;;;;;5054653;28;20072;-45
2021/12/25 09:26:12;;;;;;;5.10;3.63;;;;;;;;;;5052051;28;20041;-47
2021/12/25 09:28:38;;;;;;;4.45;3.20;;;;;;;;;;5056252;28;20071;-50
2021/12/25 09:31:04;;;;;;;4.53;2.90;;;;;;;;;;5052894;28;20123;-50
2021/12/25 09:33:30;;;;;;;4.97;3.03;;;;;;;;;;5054588;28;20037;-46
2021/12/25 09:35:56;;;;;;;7.82;3.65;;;;;;;;;;5052794;28;20504;-50
2021/12/25 09:38:22;;;;;;;9.60;6.03;;;;;;;;;;5052775;28;20047;-49
2021/12/25 09:40:48;;;;;;;9.98;5.78;;;;;;;;;;5055651;28;20036;-51
2021/12/25 09:43:17;;;;;;;15.63;7.43;;;;;;;;;;5052259;28;20403;-47
2021/12/25 09:45:42;;;;;;;8.05;4.88;;;;;;;;;;5054639;28;20048;-51
2021/12/25 09:48:08;;;;;;;9.15;4.82;;;;;;;;;;5052539;28;20036;-47
2021/12/25 09:50:34;;;;;;;7.57;4.43;;;;;;;;;;5054042;28;20555;-48
2021/12/25 09:53:00;;;;;;;7.72;4.70;;;;;;;;;;5054982;28;20048;-45
2021/12/25 09:55:26;;;;;;;9.32;5.30;;;;;;;;;;5052380;28;21043;-48
2021/12/25 09:57:52;;;;;;;5.40;4.47;;;;;;;;;;5053957;28;20045;-47
2021/12/25 10:00:21;;;;;;;9.10;5.25;;;;;;;;;;5053863;28;20033;-50
2021/12/25 10:02:50;;;;;;;7.75;4.53;;;;;;;;;;5052006;28;20032;-49
2021/12/25 10:05:35;;;;;;;7.47;5.45;;;;;;;;;;5056051;28;20040;-48
2021/12/25 10:08:19;;;;;;;7.45;4.38;;;;;;;;;;5050522;28;20408;-49
2021/12/25 10:10:48;;;;;;;7.00;5.22;;;;;;;;;;5056780;28;20119;-48
2021/12/25 10:13:40;;;;;;;11.02;6.03;;;;;;;;;;5053201;28;20052;-51
2021/12/25 10:16:24;;;;;;;11.60;6.72;;;;;;;;;;5048908;28;20119;-45
2021/12/25 10:18:51;;;;;;;8.30;5.65;;;;;;;;;;5057184;28;20051;-45
2021/12/25 10:21:23;;;;;;;8.90;5.68;;;;;;;;;;5057422;28;20049;-49
2021/12/25 10:24:14;;;;;;;9.18;4.97;;;;;;;;;;5058392;28;20048;-44
2021/12/25 10:26:42;;;;;;;9.52;5.30;;;;;;;;;;5054355;28;20040;-47
2021/12/25 10:29:25;;;;;;;10.30;5.80;;;;;;;;;;5058770;28;20044;-51
2021/12/25 10:31:53;;;;;;;21.23;11.60;;;;;;;;;;5053643;28;20037;-47
2021/12/25 10:34:23;;;;;;;29.38;16.27;;;;;;;;;;5060571;28;20387;-48
2021/12/25 10:36:49;;;;;;;8.60;4.90;;;;;;;;;;5056707;28;20040;-47
2021/12/25 10:39:20;;;;;;;8.50;5.22;;;;;;;;;;5054811;28;20114;-48
2021/12/25 10:41:58;;;;;;;8.45;4.82;;;;;;;;;;5059132;28;20580;-46
2021/12/25 10:44:26;;;;;;;7.55;4.15;;;;;;;;;;5055045;28;20112;-45
2021/12/25 10:46:54;;;;;;;6.43;3.63;;;;;;;;;;5057718;28;20411;-45
2021/12/25 10:49:21;;;;;;;7.38;4.70;;;;;;;;;;5056047;28;20103;-49
2021/12/25 10:51:47;;;;;;;7.13;3.08;;;;;;;;;;5056234;28;20503;-48
2021/12/25 10:54:15;;;;;;;5.68;3.15;;;;;;;;;;5058389;28;20047;-44
2021/12/25 10:56:42;;;;;;;4.47;2.70;;;;;;;;;;5054631;28;20500;-45
2021/12/25 10:59:11;;;;;;;6.60;3.47;;;;;;;;;;5057994;28;20619;-47
2021/12/25 11:01:44;;;;;;;7.70;4.43;;;;;;;;;;5055525;28;20534;-46
2021/12/25 11:04:35;;;;;;;3.28;2.08;;;;;;;;;;5055829;28;20040;-47
2021/12/25 11:07:14;;;;;;;2.78;1.30;;;;;;;;;;5056202;28;20421;-52
2021/12/25 11:09:40;;;;;;;2.30;1.48;;;;;;;;;;5053849;28;20033;-50
2021/12/25 11:12:18;;;;;;;3.40;1.85;;;;;;;;;;5057392;28;20063;-48
2021/12/25 11:14:45;;;;;;;4.43;2.10;;;;;;;;;;5057172;28;20037;-51
2021/12/25 11:17:22;;;;;;;6.10;2.53;;;;;;;;;;5058752;28;20033;-51
2021/12/25 11:19:57;;;;;;;3.80;2.20;;;;;;;;;;5053847;28;20040;-47
2021/12/25 11:22:25;;;;;;;3.83;3.47;;;;;;;;;;5056587;28;20055;-47
2021/12/25 11:24:52;;;;;;;3.05;1.90;;;;;;;;;;5053928;28;20041;-48
2021/12/25 11:27:18;;;;;;;2.88;2.47;;;;;;;;;;5053753;28;20048;-46
2021/12/25 11:29:44;;;;;;;3.00;1.90;;;;;;;;;;5057015;28;20047;-48
2021/12/25 11:32:12;;;;;;;2.95;1.90;;;;;;;;;;5054938;28;20043;-51
2021/12/25 11:34:38;;;;;;;2.42;1.77;;;;;;;;;;5058907;28;20262;-47
2021/12/25 11:37:04;;;;;;;3.00;1.98;;;;;;;;;;5058631;28;20404;-48
2021/12/25 11:39:31;;;;;;;2.88;1.92;;;;;;;;;;5060503;28;20042;-46
2021/12/25 11:42:04;;;;;;;2.95;2.15;;;;;;;;;;5059101;28;20037;-49
2021/12/25 11:44:45;;;;;;;3.75;2.15;;;;;;;;;;5056416;28;20072;-50
2021/12/25 11:47:31;;;;;;;3.13;1.92;;;;;;;;;;5057881;28;21388;-51
2021/12/25 11:50:00;;;;;;;3.60;1.98;;;;;;;;;;5056533;28;20080;-49
2021/12/25 11:52:32;;;;;;;4.28;2.60;;;;;;;;;;5055492;28;20512;-52
2021/12/25 11:55:31;;;;;;;4.45;2.03;;;;;;;;;;5056736;28;20041;-50
2021/12/25 12:00:45;;;;;;;4.35;1.77;;;;;;;;;;5059662;28;20048;-50
2021/12/25 12:03:46;;;;;;;2.33;1.80;;;;;;;;;;5053908;28;20499;-47
2021/12/25 12:06:13;;;;;;;2.88;1.40;;;;;;;;;;5059668;28;20091;-46
2021/12/25 12:08:53;;;;;;;8.18;1.95;;;;;;;;;;5054175;28;20040;-51
2021/12/25 12:11:21;;;;;;;6.97;3.42;;;;;;;;;;5057738;28;20068;-50
2021/12/25 12:13:47;;;;;;;2.88;1.80;;;;;;;;;;5057264;28;20576;-51
2021/12/25 12:16:13;;;;;;;2.63;2.03;;;;;;;;;;5052733;28;20028;-51
2021/12/25 12:18:40;;;;;;;4.85;1.95;;;;;;;;;;5058511;28;20745;-51
2021/12/25 12:21:34;;;;;;;4.75;2.65;;;;;;;;;;5053067;28;20041;-50
2021/12/25 12:24:42;;;;;;;5.35;2.00;;;;;;;;;;5057265;28;20037;-47
2021/12/25 12:27:08;;;;;;;2.95;1.77;;;;;;;;;;5052609;28;20734;-51
2021/12/25 12:29:46;;;;;;;4.07;1.85;;;;;;;;;;5056973;28;20036;-53
2021/12/25 12:32:23;;;;;;;3.90;2.20;;;;;;;;;;5054299;28;20463;-44
2021/12/25 12:34:51;;;;;;;4.15;2.00;;;;;;;;;;5058496;28;20110;-48
2021/12/25 12:37:16;;;;;;;4.28;2.53;;;;;;;;;;5057000;28;20032;-51
2021/12/25 12:40:03;;;;;;;3.45;2.30;;;;;;;;;;5053221;28;20106;-47
2021/12/25 12:42:38;;;;;;;3.22;2.03;;;;;;;;;;5058901;28;20129;-51
2021/12/25 12:45:11;;;;;;;4.03;2.10;;;;;;;;;;5053190;28;20108;-47
2021/12/25 12:47:37;;;;;;;4.85;2.00;;;;;;;;;;5055385;28;20063;-47
2021/12/25 12:50:07;;;;;;;4.40;2.40;;;;;;;;;;5055210;28;20496;-51
2021/12/25 12:52:39;;;;;;;6.53;1.92;;;;;;;;;;5055921;28;20511;-47
2021/12/25 12:55:12;;;;;;;2.70;1.65;;;;;;;;;;5057729;28;20519;-48
2021/12/25 12:57:41;;;;;;;3.58;1.70;;;;;;;;;;5051681;28;20028;-50
2021/12/25 13:00:18;;;;;;;2.75;1.40;;;;;;;;;;5053485;28;20624;-48
2021/12/25 13:02:50;;;;;;;2.85;1.80;;;;;;;;;;5052800;28;20039;-53
2021/12/25 13:05:30;;;;;;;4.97;1.35;;;;;;;;;;5055031;28;20046;-52
2021/12/25 13:07:58;;;;;;;4.45;1.60;;;;;;;;;;5054009;28;20033;-50
2021/12/25 13:10:35;;;;;;;2.65;1.60;;;;;;;;;;5055471;28;20043;-47
2021/12/25 13:13:07;;;;;;;2.33;1.40;;;;;;;;;;5056399;28;20106;-49
2021/12/25 13:15:34;;;;;;;4.88;2.30;;;;;;;;;;5046225;28;20044;-50
2021/12/25 13:18:03;;;;;;;3.53;2.05;;;;;;;;;;5054475;28;20044;-52
2021/12/25 13:20:39;;;;;;;3.70;2.40;;;;;;;;;;5056145;28;20041;-52
2021/12/25 13:23:08;;;;;;;7.20;4.57;;;;;;;;;;5052896;28;20043;-49
2021/12/25 13:25:34;;;;;;;8.10;4.45;;;;;;;;;;5055465;28;20086;-46
2021/12/25 13:28:04;;;;;;;8.05;4.78;;;;;;;;;;5052350;28;20041;-48
2021/12/25 13:30:31;;;;;;;8.48;3.92;;;;;;;;;;5056935;28;20120;-51
2021/12/25 13:33:10;;;;;;;3.35;2.30;;;;;;;;;;5052644;28;20504;-53
2021/12/25 13:35:36;;;;;;;3.42;2.58;;;;;;;;;;5053482;28;20555;-52
2021/12/25 13:38:02;;;;;;;6.50;2.67;;;;;;;;;;5051946;28;20047;-48
2021/12/25 13:40:28;;;;;;;4.38;2.35;;;;;;;;;;5053682;28;20206;-48
2021/12/25 13:42:54;;;;;;;2.65;2.40;;;;;;;;;;5057350;28;20033;-50
2021/12/25 13:45:22;;;;;;;8.15;4.55;;;;;;;;;;5053498;28;20052;-54
2021/12/25 13:47:48;;;;;;;9.80;4.40;;;;;;;;;;5055878;28;20812;-49
2021/12/25 13:50:14;;;;;;;5.25;2.30;;;;;;;;;;5054890;28;20035;-53
2021/12/25 13:52:47;;;;;;;4.63;1.45;;;;;;;;;;5050915;28;20504;-47
2021/12/25 13:55:19;;;;;;;12.40;2.10;;;;;;;;;;5057397;28;20041;-51
2021/12/25 13:57:53;;;;;;;4.57;1.75;;;;;;;;;;5052163;28;20242;-49
2021/12/25 14:00:28;;;;;;;2.58;1.90;;;;;;;;;;5052983;28;20051;-53
2021/12/25 14:02:57;;;;;;;5.38;1.70;;;;;;;;;;5052511;28;20061;-48
2021/12/25 14:05:25;;;;;;;4.28;1.73;;;;;;;;;;5053573;28;20033;-49
2021/12/25 14:07:50;;;;;;;5.53;2.00;;;;;;;;;;5055574;28;20043;-51
2021/12/25 14:10:19;;;;;;;5.60;1.70;;;;;;;;;;5051707;28;20120;-55
2021/12/25 14:12:48;;;;;;;24.55;8.68;;;;;;;;;;5056069;28;20640;-52
2021/12/25 14:15:16;;;;;;;44.38;16.27;;;;;;;;;;5052763;28;20033;-53
2021/12/25 14:17:44;;;;;;;7.25;3.45;;;;;;;;;;5052098;28;20094;-48
2021/12/25 14:20:14;;;;;;;7.20;3.88;;;;;;;;;;5055257;28;20504;-51
2021/12/25 14:23:06;;;;;;;13.85;7.07;;;;;;;;;;5051441;28;20071;-48
2021/12/25 14:25:35;;;;;;;11.25;6.05;;;;;;;;;;5056738;28;20129;-52
2021/12/25 14:28:05;;;;;;;15.43;6.50;;;;;;;;;;5050381;28;20043;-48
2021/12/25 14:30:32;;;;;;;11.55;6.47;;;;;;;;;;5054530;28;20119;-48
2021/12/25 14:32:58;;;;;;;10.48;5.60;;;;;;;;;;5053150;28;20044;-53
2021/12/25 14:35:24;;;;;;;9.50;5.30;;;;;;;;;;5050571;28;20041;-50
2021/12/25 14:37:58;;;;;;;9.23;6.15;;;;;;;;;;5054376;28;20060;-53
2021/12/25 14:40:30;;;;;;;8.85;6.38;;;;;;;;;;5052466;28;20420;-51
2021/12/25 14:43:04;;;;;;;22.42;11.25;;;;;;;;;;5053645;28;20037;-47
2021/12/25 14:45:39;;;;;;;20.27;12.55;;;;;;;;;;5054359;28;20102;-48
2021/12/25 14:48:06;;;;;;;38.10;22.48;;;;;;;;;;5050982;28;20055;-54
2021/12/25 14:50:33;;;;;;;53.80;34.03;;;;;;;;;;5053515;28;20041;-49
2021/12/25 14:53:17;;;;;;;47.55;30.67;;;;;;;;;;5050434;28;20044;-52
2021/12/25 14:55:46;;;;;;;39.03;24.88;;;;;;;;;;5053873;28;20631;-51
2021/12/25 14:58:19;;;;;;;21.85;13.73;;;;;;;;;;5049415;28;20072;-53
2021/12/25 15:00:47;;;;;;;10.00;5.88;;;;;;;;;;5056490;28;20407;-50
2021/12/25 15:03:22;;;;;;;10.07;5.13;;;;;;;;;;5056685;28;20041;-49
2021/12/25 15:05:51;;;;;;;11.73;6.80;;;;;;;;;;5053435;28;20036;-52
2021/12/25 15:08:37;;;;;;;20.15;9.50;;;;;;;;;;5057721;28;20029;-48
2021/12/25 15:11:04;;;;;;;;;;;;;;;;;;5028618;28;20045;-51
2021/12/25 15:13:30;;;;;;;10.15;5.63;;;;;;;;;;5051305;28;19946;-46
2021/12/25 15:15:59;;;;;;;10.77;6.53;;;;;;;;;;5054014;28;20551;-52
2021/12/25 15:18:27;;;;;;;10.20;5.25;;;;;;;;;;5056386;28;20031;-52
2021/12/25 15:21:19;;;;;;;8.25;3.22;;;;;;;;;;5058964;28;20051;-48
2021/12/25 15:23:45;;;;;;;5.57;3.55;;;;;;;;;;5055027;28;20025;-52
2021/12/25 15:26:13;;;;;;;6.57;3.53;;;;;;;;;;5058961;28;20029;-51
2021/12/25 15:28:41;;;;;;;11.80;5.53;;;;;;;;;;5054480;28;20103;-55
2021/12/25 15:31:18;;;;;;;7.22;5.40;;;;;;;;;;5058392;28;20025;-52
2021/12/25 15:33:53;;;;;;;8.63;5.78;;;;;;;;;;5056317;28;20071;-46
2021/12/25 15:36:19;;;;;;;11.00;8.02;;;;;;;;;;5053274;28;20107;-49
2021/12/25 15:38:46;;;;;;;14.90;10.55;;;;;;;;;;5059260;28;20030;-52
2021/12/25 15:41:12;;;;;;;14.60;11.50;;;;;;;;;;5054524;28;20032;-52
2021/12/25 15:43:38;;;;;;;20.35;13.13;;;;;;;;;;5059376;28;20028;-54
2021/12/25 15:46:05;;;;;;;16.48;11.23;;;;;;;;;;5057878;28;20536;-52
2021/12/25 15:48:32;;;;;;;23.30;14.38;;;;;;;;;;5027785;28;20040;-47
2021/12/25 15:50:58;;;;;;;14.68;9.60;;;;;;;;;;5057159;28;20385;-51
2021/12/25 15:53:23;;;;;;;15.85;9.85;;;;;;;;;;5054457;28;20063;-51